sensor_id;sensor_type;location;lat;lon;timestamp;pressure;altitude;pressure_sealevel;temperature
77385;BMP280;66444;49.680;18.538;2023-08-30T00:03:22;96284.18897346251;;;17.24264293378219
77385;BMP280;66444;49.680;18.538;2023-08-30T00:08:28;96289.63559706113;;;17.2070865185
77385;BMP280;66444;49.680;18.538;2023-08-30T00:13:34;96279.03011160767;;;17.135972832283006
77385;BMP280;66444;49.680;18.538;2023-08-30T00:18:40;96278.27258925843;;;17.13089323961176
77385;BMP280;66444;49.680;18.538;2023-08-30T00:23:46;96273.65631935014;;;17.135972832283006
77385;BMP280;66444;49.680;18.538;2023-08-30T00:28:52;96265.25282180203;;;17.115654426673427
77385;BMP280;66444;49.680;18.538;2023-08-30T00:34:09;96275.85694027365;;;17.186768438853324
77385;BMP280;66444;49.680;18.538;2023-08-30T00:39:15;96277.37184062788;;;17.196927490318195
77385;BMP280;66444;49.680;18.538;2023-08-30T00:44:21;96268.96790989701;;;17.17660936410539
77385;BMP280;66444;49.680;18.538;2023-08-30T00:49:27;96278.88674754895;;;17.2070865185
77385;BMP280;66444;49.680;18.538;2023-08-30T00:54:35;96268.13793792286;;;17.2070865185
77385;BMP280;66444;49.680;18.538;2023-08-30T00:59:42;96275.3132078271;;;17.0750173360575
77385;BMP280;66444;49.680;18.538;2023-08-30T01:04:48;96273.7981132063;;;17.064858005195855
77385;BMP280;66444;49.680;18.538;2023-08-30T01:09:55;96278.34341682988;;;17.095335927931593
77385;BMP280;66444;49.680;18.538;2023-08-30T01:15:03;96262.09119674306;;;16.968343200767414
77385;BMP280;66444;49.680;18.538;2023-08-30T01:20:17;96265.74074298075;;;16.86674639969133
77385;BMP280;66444;49.680;18.538;2023-08-30T01:25:27;96265.94165554421;;;16.760067252721637
77385;BMP280;66444;49.680;18.538;2023-08-30T01:30:44;96255.93856320385;;;16.567022271221504
77385;BMP280;66444;49.680;18.538;2023-08-30T01:35:52;96254.54918502265;;;16.485737659176813
77385;BMP280;66444;49.680;18.538;2023-08-30T01:40:59;96256.53745484435;;;16.44509479436092
77385;BMP280;66444;49.680;18.538;2023-08-30T01:46:07;96266.16642224968;;;16.41969281467609
77385;BMP280;66444;49.680;18.538;2023-08-30T01:51:14;96277.31074165655;;;16.404451557016
77385;BMP280;66444;49.680;18.538;2023-08-30T01:56:22;96266.57588099336;;;16.404451557016
77385;BMP280;66444;49.680;18.538;2023-08-30T02:01:28;96275.79435561558;;;16.394290689472108
77385;BMP280;66444;49.680;18.538;2023-08-30T02:06:35;96275.03616510917;;;16.389210246969014
77385;BMP280;66444;49.680;18.538;2023-08-30T02:11:50;96274.62702276112;;;16.404451557016
77385;BMP280;66444;49.680;18.538;2023-08-30T02:17:00;96278.82713440045;;;16.414612401276827
77385;BMP280;66444;49.680;18.538;2023-08-30T02:22:08;96265.75684449743;;;16.43493401994929
77385;BMP280;66444;49.680;18.538;2023-08-30T02:27:14;96270.30528368602;;;16.465416273334995
77385;BMP280;66444;49.680;18.538;2023-08-30T02:32:20;96266.86325195023;;;16.460335912322627
77385;BMP280;66444;49.680;18.538;2023-08-30T02:37:27;96266.57588099336;;;16.404451557016
77385;BMP280;66444;49.680;18.538;2023-08-30T02:42:33;96262.72458518646;;;16.414612401276827
77385;BMP280;66444;49.680;18.538;2023-08-30T02:47:45;96253.09562184267;;;16.440014410065487
77385;BMP280;66444;49.680;18.538;2023-08-30T02:52:51;96256.0650395158;;;16.495898317173122
77385;BMP280;66444;49.680;18.538;2023-08-30T02:57:57;96256.0650395158;;;16.495898317173122
77385;BMP280;66444;49.680;18.538;2023-08-30T03:03:04;96251.86513426837;;;16.485737659176813
77385;BMP280;66444;49.680;18.538;2023-08-30T03:08:10;96250.69684944699;;;16.495898317173122
77385;BMP280;66444;49.680;18.538;2023-08-30T03:13:16;96258.05341914773;;;16.45525554548949
77385;BMP280;66444;49.680;18.538;2023-08-30T03:18:23;96257.23323826403;;;16.485737659176813
77385;BMP280;66444;49.680;18.538;2023-08-30T03:23:29;96263.35934690444;;;16.49081799108535
77385;BMP280;66444;49.680;18.538;2023-08-30T03:28:36;96267.08670783976;;;16.551781519968063
77385;BMP280;66444;49.680;18.538;2023-08-30T03:33:43;96272.04504543645;;;16.567022271221504
77385;BMP280;66444;49.680;18.538;2023-08-30T03:38:51;96272.51774249687;;;16.516219563316554
77385;BMP280;66444;49.680;18.538;2023-08-30T03:43:57;96279.87352630947;;;16.475576977897436
77385;BMP280;66444;49.680;18.538;2023-08-30T03:49:04;96277.31074165655;;;16.404451557016
77385;BMP280;66444;49.680;18.538;2023-08-30T03:54:10;96270.54655803902;;;16.32316396473907
77385;BMP280;66444;49.680;18.538;2023-08-30T03:59:15;96265.64764279363;;;16.272358462866396
77385;BMP280;66444;49.680;18.538;2023-08-30T04:04:19;96269.96347633468;;;16.211391092278063
77385;BMP280;66444;49.680;18.538;2023-08-30T04:09:23;96260.8638422296;;;16.150422883499413
77385;BMP280;66444;49.680;18.538;2023-08-30T04:14:28;96276.95949893848;;;16.150422883499413
77385;BMP280;66444;49.680;18.538;2023-08-30T04:19:32;96276.20107049566;;;16.145342161599547
77385;BMP280;66444;49.680;18.538;2023-08-30T04:24:36;96273.81251796133;;;16.20122978235595
77385;BMP280;66444;49.680;18.538;2023-08-30T04:29:41;96272.29581112655;;;16.19106844915077
77385;BMP280;66444;49.680;18.538;2023-08-30T04:34:46;96286.06077174975;;;16.211391092278063
77385;BMP280;66444;49.680;18.538;2023-08-30T04:39:51;96283.02698718193;;;16.19106844915077
77385;BMP280;66444;49.680;18.538;2023-08-30T04:44:55;96294.46055036449;;;16.2317136422731
77385;BMP280;66444;49.680;18.538;2023-08-30T04:50:00;96287.57767413947;;;16.221552378917114
77385;BMP280;66444;49.680;18.538;2023-08-30T04:55:07;96283.78543079694;;;16.196149118663744
77385;BMP280;66444;49.680;18.538;2023-08-30T05:00:13;96293.35093605348;;;16.20631044022739
77385;BMP280;66444;49.680;18.538;2023-08-30T05:05:18;96282.2118080207;;;16.221552378917114
77385;BMP280;66444;49.680;18.538;2023-08-30T05:10:23;96286.76228246829;;;16.252036099135875
77385;BMP280;66444;49.680;18.538;2023-08-30T05:15:27;96272.88026270176;;;16.302841833839192
77385;BMP280;66444;49.680;18.538;2023-08-30T05:20:34;96271.94330635211;;;16.404451557016
77385;BMP280;66444;49.680;18.538;2023-08-30T05:25:38;96268.78913059572;;;16.45525554548949
77385;BMP280;66444;49.680;18.538;2023-08-30T05:30:44;96264.68609614395;;;16.607664018450304
77385;BMP280;66444;49.680;18.538;2023-08-30T05:35:49;96265.7264035356;;;16.668625940801576
77385;BMP280;66444;49.680;18.538;2023-08-30T05:40:53;96269.38469935764;;;16.76514727030881
77385;BMP280;66444;49.680;18.538;2023-08-30T05:45:57;96273.38531602;;;16.881986068282277
77385;BMP280;66444;49.680;18.538;2023-08-30T05:51:02;96273.93771996722;;;16.993742037238555
77385;BMP280;66444;49.680;18.538;2023-08-30T05:56:08;96286.05974937869;;;17.0750173360575
77385;BMP280;66444;49.680;18.538;2023-08-30T06:01:13;96289.91766728577;;;17.064858005195855
77385;BMP280;66444;49.680;18.538;2023-08-30T06:06:18;96296.80633079934;;;17.0750173360575
77385;BMP280;66444;49.680;18.538;2023-08-30T06:11:23;96292.25997391388;;;17.04453927362338
77385;BMP280;66444;49.680;18.538;2023-08-30T06:16:28;96290.88126366187;;;16.963263416010886
77385;BMP280;66444;49.680;18.538;2023-08-30T06:21:32;96305.614977904;;;16.881986068282277
77385;BMP280;66444;49.680;18.538;2023-08-30T06:26:37;96314.01876668828;;;16.902305544912814
77385;BMP280;66444;49.680;18.538;2023-08-30T06:31:42;96312.4369284712;;;16.92770475973375
77385;BMP280;66444;49.680;18.538;2023-08-30T06:36:46;96331.65066329378;;;16.912465248303487
77385;BMP280;66444;49.680;18.538;2023-08-30T06:41:51;96320.90677675094;;;16.912465248303487
77385;BMP280;66444;49.680;18.538;2023-08-30T06:46:56;96320.08313332987;;;16.94294421877712
77385;BMP280;66444;49.680;18.538;2023-08-30T06:52:01;96312.5026915741;;;16.89214581823908
77385;BMP280;66444;49.680;18.538;2023-08-30T06:57:05;96317.05093677537;;;16.922624928411096
77385;BMP280;66444;49.680;18.538;2023-08-30T07:02:10;96321.6648656321;;;16.917545091267677
77385;BMP280;66444;49.680;18.538;2023-08-30T07:07:15;96321.10026909385;;;16.80578720145859
77385;BMP280;66444;49.680;18.538;2023-08-30T07:12:19;96323.24619393858;;;16.89214581823908
77385;BMP280;66444;49.680;18.538;2023-08-30T07:17:29;96325.58528332371;;;16.87182629504241
77385;BMP280;66444;49.680;18.538;2023-08-30T07:22:34;96327.79498552247;;;16.922624928411096
77385;BMP280;66444;49.680;18.538;2023-08-30T07:27:38;96332.69019357319;;;16.973422979703173
77385;BMP280;66444;49.680;18.538;2023-08-30T07:32:43;96328.35533385181;;;17.03437987291254
77385;BMP280;66444;49.680;18.538;2023-08-30T07:37:47;96333.59436970322;;;17.10549518894404
77385;BMP280;66444;49.680;18.538;2023-08-30T07:42:52;96338.14248441008;;;17.135972832283006
77385;BMP280;66444;49.680;18.538;2023-08-30T07:47:56;96338.69473018941;;;17.247722398396583
77385;BMP280;66444;49.680;18.538;2023-08-30T07:53:01;96346.27404810654;;;17.29851672439836
77385;BMP280;66444;49.680;18.538;2023-08-30T07:58:05;96350.27107976949;;;17.21724552339874
77385;BMP280;66444;49.680;18.538;2023-08-30T08:03:10;96345.10221997999;;;17.30867551974952
77385;BMP280;66444;49.680;18.538;2023-08-30T08:08:16;96339.17722269248;;;17.196927490318195
77385;BMP280;66444;49.680;18.538;2023-08-30T08:13:21;96355.64572024433;;;17.21724552339874
77385;BMP280;66444;49.680;18.538;2023-08-30T08:18:25;96354.1295317425;;;17.2070865185
77385;BMP280;66444;49.680;18.538;2023-08-30T08:23:30;96355.08898421211;;;17.10549518894404
77385;BMP280;66444;49.680;18.538;2023-08-30T08:28:35;96366.78932636075;;;17.003901531081645
77385;BMP280;66444;49.680;18.538;2023-08-30T08:33:40;96364.44991376805;;;17.02422044891864
77385;BMP280;66444;49.680;18.538;2023-08-30T08:38:45;96368.08552323318;;;16.922624928411096
77385;BMP280;66444;49.680;18.538;2023-08-30T08:43:49;96366.56856975915;;;16.912465248303487
77385;BMP280;66444;49.680;18.538;2023-08-30T08:48:54;96376.71279303294;;;17.03437987291254
77385;BMP280;66444;49.680;18.538;2023-08-30T08:54:02;96372.5947431689;;;17.186768438853324
77385;BMP280;66444;49.680;18.538;2023-08-30T08:59:08;96378.38137049116;;;17.171529818000273
77385;BMP280;66444;49.680;18.538;2023-08-30T09:04:13;96376.10638321642;;;17.156291144760324
77385;BMP280;66444;49.680;18.538;2023-08-30T09:09:18;96368.11122086756;;;17.120734036806972
77385;BMP280;66444;49.680;18.538;2023-08-30T09:14:23;96371.46716790141;;;16.963263416010886
77385;BMP280;66444;49.680;18.538;2023-08-30T09:19:28;96374.62660794643;;;16.912465248303487
77385;BMP280;66444;49.680;18.538;2023-08-30T09:24:37;96380.12139417752;;;16.841346835624428
77385;BMP280;66444;49.680;18.538;2023-08-30T09:29:42;96377.43568274858;;;16.841346835624428
77385;BMP280;66444;49.680;18.538;2023-08-30T09:34:47;96375.28045695879;;;16.754987229313702
77385;BMP280;66444;49.680;18.538;2023-08-30T09:39:52;96375.5694833675;;;16.810867166658863
77385;BMP280;66444;49.680;18.538;2023-08-30T09:44:57;96382.68466854827;;;16.912465248303487
77385;BMP280;66444;49.680;18.538;2023-08-30T09:50:07;96390.74275156469;;;16.912465248303487
77385;BMP280;66444;49.680;18.538;2023-08-30T09:55:13;96395.86647092346;;;17.054698651051147
77385;BMP280;66444;49.680;18.538;2023-08-30T10:00:18;96391.56249607273;;;16.881986068282277
77385;BMP280;66444;49.680;18.538;2023-08-30T10:05:24;96413.3972762704;;;16.668625940801576
77385;BMP280;66444;49.680;18.538;2023-08-30T10:10:30;96402.65732260361;;;16.668625940801576
77385;BMP280;66444;49.680;18.538;2023-08-30T10:15:36;96391.45108952164;;;16.719426902476698
77385;BMP280;66444;49.680;18.538;2023-08-30T10:20:49;96390.28358954449;;;16.72958702496253
77385;BMP280;66444;49.680;18.538;2023-08-30T10:25:58;96395.82629984821;;;16.622904577618463
77385;BMP280;66444;49.680;18.538;2023-08-30T10:31:04;96381.99425612585;;;16.63814508439973
77385;BMP280;66444;49.680;18.538;2023-08-30T10:36:09;96384.91312109045;;;16.72958702496253
77385;BMP280;66444;49.680;18.538;2023-08-30T10:41:19;96389.46596518288;;;16.760067252721637
77385;BMP280;66444;49.680;18.538;2023-08-30T10:46:29;96385.55307053434;;;16.80578720145859
77385;BMP280;66444;49.680;18.538;2023-08-30T10:51:35;96381.63871105392;;;16.851506678713484
77385;BMP280;66444;49.680;18.538;2023-08-30T10:56:45;96394.47442628838;;;16.973422979703173
77385;BMP280;66444;49.680;18.538;2023-08-30T11:01:51;96387.45900469876;;;17.03437987291254
77385;BMP280;66444;49.680;18.538;2023-08-30T11:06:57;96389.54179900225;;;17.156291144760324
77385;BMP280;66444;49.680;18.538;2023-08-30T11:12:04;96391.88205190912;;;17.135972832283006
77385;BMP280;66444;49.680;18.538;2023-08-30T11:17:12;96385.11987503771;;;17.054698651051147
77385;BMP280;66444;49.680;18.538;2023-08-30T11:22:16;96398.26771847923;;;16.998821787070483
77385;BMP280;66444;49.680;18.538;2023-08-30T11:27:24;96401.93524099462;;;17.095335927931593
77385;BMP280;66444;49.680;18.538;2023-08-30T11:32:31;96410.21587230165;;;17.186768438853324
77385;BMP280;66444;49.680;18.538;2023-08-30T11:37:37;96396.77969866809;;;17.186768438853324
77385;BMP280;66444;49.680;18.538;2023-08-30T11:42:41;96401.04870886156;;;17.16137070832774
77385;BMP280;66444;49.680;18.538;2023-08-30T11:47:47;96400.35438096039;;;17.120734036806972
77385;BMP280;66444;49.680;18.538;2023-08-30T11:52:52;96401.11294733992;;;17.12581364111975
77385;BMP280;66444;49.680;18.538;2023-08-30T11:57:57;96406.98636457286;;;17.273119634157048
77385;BMP280;66444;49.680;18.538;2023-08-30T12:03:02;96407.33951671442;;;17.491529854666442
77385;BMP280;66444;49.680;18.538;2023-08-30T12:08:17;96405.06469797205;;;17.476292281551288
77385;BMP280;66444;49.680;18.538;2023-08-30T12:13:22;96411.47090730905;;;17.339151766104624
77385;BMP280;66444;49.680;18.538;2023-08-30T12:18:28;96408.82621826195;;;17.10549518894404
77385;BMP280;66444;49.680;18.538;2023-08-30T12:23:36;96411.88160880063;;;16.89214581823908
77385;BMP280;66444;49.680;18.538;2023-08-30T12:28:41;96413.22598238089;;;16.775307288020848
77385;BMP280;66444;49.680;18.538;2023-08-30T12:33:46;96412.989526604;;;16.683866290422156
77385;BMP280;66444;49.680;18.538;2023-08-30T12:38:51;96421.91498794418;;;16.617824397049844
77385;BMP280;66444;49.680;18.538;2023-08-30T12:43:56;96421.69056440177;;;16.760067252721637
77385;BMP280;66444;49.680;18.538;2023-08-30T12:49:01;96416.08537817025;;;16.902305544912814
77385;BMP280;66444;49.680;18.538;2023-08-30T12:54:06;96413.50389534401;;;17.064858005195855
77385;BMP280;66444;49.680;18.538;2023-08-30T12:59:11;96414.0730975114;;;17.17660936410539
77385;BMP280;66444;49.680;18.538;2023-08-30T13:04:16;96411.60307274923;;;17.268040198646485
77385;BMP280;66444;49.680;18.538;2023-08-30T13:09:21;96409.32751365933;;;17.252801857190207
77385;BMP280;66444;49.680;18.538;2023-08-30T13:14:27;96408.09105068802;;;17.29851672439836
77385;BMP280;66444;49.680;18.538;2023-08-30T13:19:31;96399.96094869074;;;17.33407240626402
77385;BMP280;66444;49.680;18.538;2023-08-30T13:24:46;96407.13161794363;;;17.40010363017209
77385;BMP280;66444;49.680;18.538;2023-08-30T13:29:51;96408.16675024027;;;17.461054656049235
77385;BMP280;66444;49.680;18.538;2023-08-30T13:34:56;96402.72062774921;;;17.496609034063294
77385;BMP280;66444;49.680;18.538;2023-08-30T13:40:01;96397.13146109294;;;17.60327045680024
77385;BMP280;66444;49.680;18.538;2023-08-30T13:45:17;96416.1561284134;;;17.694692490343005
77385;BMP280;66444;49.680;18.538;2023-08-30T13:50:22;96410.09091423641;;;17.654060708265753
77385;BMP280;66444;49.680;18.538;2023-08-30T13:55:27;96419.47213117256;;;17.572796026524156
77385;BMP280;66444;49.680;18.538;2023-08-30T14:00:32;96421.95411467705;;;17.481371478410438
77385;BMP280;66444;49.680;18.538;2023-08-30T14:05:36;96415.61079791361;;;17.58295419323258
77385;BMP280;66444;49.680;18.538;2023-08-30T14:10:42;96415.46946130319;;;17.654060708265753
77385;BMP280;66444;49.680;18.538;2023-08-30T14:15:47;96413.95308290794;;;17.643902704538778
77385;BMP280;66444;49.680;18.538;2023-08-30T14:20:54;96424.49596746419;;;17.75056058242917
77385;BMP280;66444;49.680;18.538;2023-08-30T14:26:00;96413.80969082193;;;17.715008241683243
77385;BMP280;66444;49.680;18.538;2023-08-30T14:31:08;96420.70510720798;;;17.725166082428768
77385;BMP280;66444;49.680;18.538;2023-08-30T14:36:13;96425.32607918809;;;17.72008716496639
77385;BMP280;66444;49.680;18.538;2023-08-30T14:41:18;96430.63360237559;;;17.755639464966954
77385;BMP280;66444;49.680;18.538;2023-08-30T14:46:23;96425.10862983536;;;17.826743209315463
77385;BMP280;66444;49.680;18.538;2023-08-30T14:51:29;96423.51890305843;;;17.852137127239256
77385;BMP280;66444;49.680;18.538;2023-08-30T14:56:34;96425.86673993448;;;17.831822004541756
77385;BMP280;66444;49.680;18.538;2023-08-30T15:01:39;96434.69510557756;;;17.83690079394728
77385;BMP280;66444;49.680;18.538;2023-08-30T15:06:49;96435.79582901113;;;17.86229465366341
77385;BMP280;66444;49.680;18.538;2023-08-30T15:11:54;96442.54557085842;;;17.94355402686633
77385;BMP280;66444;49.680;18.538;2023-08-30T15:16:59;96441.10303167586;;;17.897845812793822
77385;BMP280;66444;49.680;18.538;2023-08-30T15:22:04;96437.52961124125;;;17.765797212580217
77385;BMP280;66444;49.680;18.538;2023-08-30T15:27:09;96440.08214409057;;;17.44073774055578
77385;BMP280;66444;49.680;18.538;2023-08-30T15:32:14;96442.58689029692;;;17.115654426673427
77385;BMP280;66444;49.680;18.538;2023-08-30T15:37:24;96450.53701349192;;;16.953103829035534
77385;BMP280;66444;49.680;18.538;2023-08-30T15:42:29;96453.91552207705;;;16.760067252721637
77385;BMP280;66444;49.680;18.538;2023-08-30T15:47:34;96456.95297030907;;;16.78038728814572
77385;BMP280;66444;49.680;18.538;2023-08-30T15:52:39;96458.359515397;;;16.86166649851948
77385;BMP280;66444;49.680;18.538;2023-08-30T15:57:44;96451.3544102924;;;16.922624928411096
77385;BMP280;66444;49.680;18.538;2023-08-30T16:02:49;96462.09895715746;;;16.922624928411096
77385;BMP280;66444;49.680;18.538;2023-08-30T16:07:55;96456.19360575623;;;16.775307288020848
77385;BMP280;66444;49.680;18.538;2023-08-30T16:13:00;96460.10058545582;;;16.72958702496253
77385;BMP280;66444;49.680;18.538;2023-08-30T16:18:05;96473.9337170999;;;16.714346832502635
77385;BMP280;66444;49.680;18.538;2023-08-30T16:23:11;96478.4911755775;;;16.74482716503553
77385;BMP280;66444;49.680;18.538;2023-08-30T16:28:16;96471.54712933002;;;16.77022728207521
77385;BMP280;66444;49.680;18.538;2023-08-30T16:33:21;96474.53024220467;;;16.82610702733509
77385;BMP280;66444;49.680;18.538;2023-08-30T16:38:26;96479.03145586235;;;16.89214581823908
77385;BMP280;66444;49.680;18.538;2023-08-30T16:43:36;96474.3622798419;;;16.93278458523564
77385;BMP280;66444;49.680;18.538;2023-08-30T16:48:46;96482.7723531835;;;16.953103829035534
77385;BMP280;66444;49.680;18.538;2023-08-30T16:53:51;96482.4208826399;;;16.93278458523564
77385;BMP280;66444;49.680;18.538;2023-08-30T16:59:01;96479.73467921656;;;16.93278458523564
77385;BMP280;66444;49.680;18.538;2023-08-30T17:04:13;96481.25351288739;;;16.94294421877712
77385;BMP280;66444;49.680;18.538;2023-08-30T17:09:18;96479.73467921656;;;16.93278458523564
77385;BMP280;66444;49.680;18.538;2023-08-30T17:14:23;96483.12367056267;;;16.973422979703173
77385;BMP280;66444;49.680;18.538;2023-08-30T17:19:28;96489.2558912415;;;16.978502752818166
77385;BMP280;66444;49.680;18.538;2023-08-30T17:24:34;96495.03657519171;;;16.963263416010886
77385;BMP280;66444;49.680;18.538;2023-08-30T17:29:39;96485.43439258564;;;16.719426902476698
77385;BMP280;66444;49.680;18.538;2023-08-30T17:34:44;96489.38952348963;;;16.63814508439973
77385;BMP280;66444;49.680;18.538;2023-08-30T17:39:54;96486.401476842;;;16.58226297008805
77385;BMP280;66444;49.680;18.538;2023-08-30T17:44:59;96497.79868311693;;;16.658465678617357
77385;BMP280;66444;49.680;18.538;2023-08-30T17:50:04;96496.1755356456;;;16.719426902476698
77385;BMP280;66444;49.680;18.538;2023-08-30T17:55:15;96489.23273415642;;;16.74482716503553
77385;BMP280;66444;49.680;18.538;2023-08-30T18:00:20;96503.77317110826;;;16.77022728207521
77385;BMP280;66444;49.680;18.538;2023-08-30T18:05:25;96502.25363069573;;;16.760067252721637
77385;BMP280;66444;49.680;18.538;2023-08-30T18:10:30;96514.51526469394;;;16.77022728207521
77385;BMP280;66444;49.680;18.538;2023-08-30T18:15:36;96516.74247016343;;;16.821027079597116
77385;BMP280;66444;49.680;18.538;2023-08-30T18:20:41;96525.96564749013;;;16.810867166658863
77385;BMP280;66444;49.680;18.538;2023-08-30T18:25:46;96516.33616162148;;;16.836266905348747
77385;BMP280;66444;49.680;18.538;2023-08-30T18:30:52;96514.05672033135;;;16.821027079597116
77385;BMP280;66444;49.680;18.538;2023-08-30T18:35:57;96520.59422147108;;;16.810867166658863
77385;BMP280;66444;49.680;18.538;2023-08-30T18:41:03;96525.96564749013;;;16.810867166658863
77385;BMP280;66444;49.680;18.538;2023-08-30T18:46:08;96527.48549438943;;;16.821027079597116
77385;BMP280;66444;49.680;18.538;2023-08-30T18:51:13;96528.19306707686;;;16.86166649851948
77385;BMP280;66444;49.680;18.538;2023-08-30T18:56:18;96519.7818196138;;;16.841346835624428
77385;BMP280;66444;49.680;18.538;2023-08-30T19:01:24;96535.89691733594;;;16.841346835624428
77385;BMP280;66444;49.680;18.538;2023-08-30T19:06:29;96535.79207875178;;;16.912465248303487
77385;BMP280;66444;49.680;18.538;2023-08-30T19:11:34;96513.5969984995;;;16.87182629504241
77385;BMP280;66444;49.680;18.538;2023-08-30T19:16:40;96520.84169248697;;;16.902305544912814
77385;BMP280;66444;49.680;18.538;2023-08-30T19:21:45;96524.3408936277;;;16.87182629504241
77385;BMP280;66444;49.680;18.538;2023-08-30T19:26:50;96531.23265183001;;;16.881986068282277
77385;BMP280;66444;49.680;18.538;2023-08-30T19:31:55;96543.60010542157;;;16.821027079597116
77385;BMP280;66444;49.680;18.538;2023-08-30T19:37:05;96545.1202321942;;;16.831186969252304
77385;BMP280;66444;49.680;18.538;2023-08-30T19:42:16;96538.22855845177;;;16.821027079597116
77385;BMP280;66444;49.680;18.538;2023-08-30T19:47:23;96536.70852940451;;;16.810867166658863
77385;BMP280;66444;49.680;18.538;2023-08-30T19:52:28;96534.37696606427;;;16.831186969252304
77385;BMP280;66444;49.680;18.538;2023-08-30T19:57:34;96531.69115575642;;;16.831186969252304
77385;BMP280;66444;49.680;18.538;2023-08-30T20:02:41;96526.37153805215;;;16.79562725359574
77385;BMP280;66444;49.680;18.538;2023-08-30T20:07:49;96548.26206007828;;;16.78038728814572
77385;BMP280;66444;49.680;18.538;2023-08-30T20:12:57;96547.5518457044;;;16.739747124165298
77385;BMP280;66444;49.680;18.538;2023-08-30T20:18:05;96554.4922790422;;;16.714346832502635
77385;BMP280;66444;49.680;18.538;2023-08-30T20:23:13;96553.27806477535;;;16.760067252721637
77385;BMP280;66444;49.680;18.538;2023-08-30T20:28:21;96550.59254584134;;;16.760067252721637
77385;BMP280;66444;49.680;18.538;2023-08-30T20:33:33;96550.59254584134;;;16.760067252721637
77385;BMP280;66444;49.680;18.538;2023-08-30T20:38:41;96548.31201823971;;;16.74482716503553
77385;BMP280;66444;49.680;18.538;2023-08-30T20:43:48;96562.90414272789;;;16.734667077474295
77385;BMP280;66444;49.680;18.538;2023-08-30T20:48:56;96565.18507016325;;;16.749907200084998
77385;BMP280;66444;49.680;18.538;2023-08-30T20:54:04;96556.72381093397;;;16.76514727030881
77385;BMP280;66444;49.680;18.538;2023-08-30T20:59:12;96550.59254584134;;;16.760067252721637
77385;BMP280;66444;49.680;18.538;2023-08-30T21:04:20;96552.16248750991;;;16.734667077474295
77385;BMP280;66444;49.680;18.538;2023-08-30T21:09:28;96556.06145045107;;;16.68894639532082
77385;BMP280;66444;49.680;18.538;2023-08-30T21:14:36;96556.86989018187;;;16.658465678617357
77385;BMP280;66444;49.680;18.538;2023-08-30T21:19:44;96559.1985822367;;;16.63814508439973
77385;BMP280;66444;49.680;18.538;2023-08-30T21:24:51;96564.92514809898;;;16.658465678617357
77385;BMP280;66444;49.680;18.538;2023-08-30T21:29:59;96563.7608083601;;;16.668625940801576
77385;BMP280;66444;49.680;18.538;2023-08-30T21:35:07;96574.50135927754;;;16.668625940801576
77385;BMP280;66444;49.680;18.538;2023-08-30T21:40:17;96579.87164966753;;;16.668625940801576
77385;BMP280;66444;49.680;18.538;2023-08-30T21:45:25;96574.50135927754;;;16.668625940801576
77385;BMP280;66444;49.680;18.538;2023-08-30T21:50:33;96576.02229682225;;;16.67878617970273
77385;BMP280;66444;49.680;18.538;2023-08-30T21:55:46;96577.18650322827;;;16.668625940801576
77385;BMP280;66444;49.680;18.538;2023-08-30T22:00:56;96577.23309167336;;;16.633064921293407
77385;BMP280;66444;49.680;18.538;2023-08-30T22:06:04;96578.35062773009;;;16.658465678617357
77385;BMP280;66444;49.680;18.538;2023-08-30T22:11:12;96580.63216314126;;;16.673706063162534